Time;durP1;ratioP1;P1;durP2;ratioP2;P2;SDS_P1;SDS_P2;PMS_P1;PMS_P2;Temp;Humidity;BMP_temperature;BMP_pressure;BME280_temperature;BME280_humidity;BME280_pressure;Samples;Min_cycle;Max_cycle;Signal;HPM_P1;HPM_P2
2023/04/02 00:01:38;;;;;;;4.15;3.55;;;;;;;10.51;68.83;100985.97;5100196;28;20147;-61
2023/04/02 00:04:14;;;;;;;4.53;3.78;;;;;;;10.50;68.62;100982.47;5099087;28;20044;-62
2023/04/02 00:06:46;;;;;;;5.68;4.05;;;;;;;10.49;68.53;100975.44;5106302;28;20056;-61
2023/04/02 00:09:24;;;;;;;4.53;3.75;;;;;;;10.49;68.40;100993.44;5106849;28;20138;-61
2023/04/02 00:11:54;;;;;;;5.63;3.85;;;;;;;10.43;69.08;100993.25;5116686;28;20047;-61
2023/04/02 00:14:26;;;;;;;4.75;3.75;;;;;;;10.40;68.57;101001.75;5110270;28;20127;-61
2023/04/02 00:16:55;;;;;;;7.22;3.53;;;;;;;10.37;68.92;100996.03;5106939;28;20051;-61
2023/04/02 00:19:29;;;;;;;4.13;3.38;;;;;;;10.32;68.70;101002.06;5112600;28;20091;-61
2023/04/02 00:21:58;;;;;;;4.38;3.70;;;;;;;10.31;68.43;100999.59;5115372;28;20469;-61
2023/04/02 00:24:26;;;;;;;5.53;4.25;;;;;;;10.27;68.91;101006.44;5104478;28;20066;-61
2023/04/02 00:26:55;;;;;;;4.65;4.00;;;;;;;10.27;68.22;101011.78;5118908;28;20119;-61
2023/04/02 00:29:24;;;;;;;4.32;3.60;;;;;;;10.30;68.28;101006.00;5119626;28;20058;-61
2023/04/02 00:31:53;;;;;;;4.75;3.53;;;;;;;10.31;68.35;101016.53;5108257;28;20040;-61
2023/04/02 00:34:23;;;;;;;5.25;3.80;;;;;;;10.35;68.33;101011.53;5105088;28;21108;-62
2023/04/02 00:36:53;;;;;;;4.20;3.28;;;;;;;10.37;68.34;101021.03;5119558;28;20054;-62
2023/04/02 00:39:24;;;;;;;5.07;3.60;;;;;;;10.32;68.48;101023.53;5108749;28;20044;-61
2023/04/02 00:41:57;;;;;;;4.75;3.47;;;;;;;10.30;68.14;101039.06;5122011;28;20465;-61
2023/04/02 00:44:31;;;;;;;3.85;3.42;;;;;;;10.28;67.92;101030.38;5121843;28;20062;-62
2023/04/02 00:47:07;;;;;;;4.43;3.72;;;;;;;10.27;68.12;101033.28;5117329;28;20056;-62
2023/04/02 00:49:38;;;;;;;4.75;3.50;;;;;;;10.27;68.19;101041.34;5120849;28;20384;-61
2023/04/02 00:52:09;;;;;;;4.28;3.50;;;;;;;10.26;68.03;101042.38;5118021;28;20047;-61
2023/04/02 00:54:42;;;;;;;3.85;2.92;;;;;;;10.23;67.84;101053.56;5117622;28;20058;-62
2023/04/02 00:57:16;;;;;;;4.00;3.42;;;;;;;10.23;68.06;101056.25;5120179;27;20050;-62
2023/04/02 00:59:56;;;;;;;3.35;2.83;;;;;;;10.20;68.13;101062.03;5122161;28;20047;-62
2023/04/02 01:02:30;;;;;;;3.47;2.85;;;;;;;10.18;67.96;101064.09;5119778;28;20138;-61
2023/04/02 01:05:01;;;;;;;4.10;3.25;;;;;;;10.17;68.10;101074.00;5122156;28;20130;-61
2023/04/02 01:07:47;;;;;;;5.47;3.50;;;;;;;10.18;67.59;101088.25;5121804;28;20683;-61
2023/04/02 01:10:29;;;;;;;4.55;3.08;;;;;;;10.18;68.03;101090.94;5115553;28;20067;-61
2023/04/02 01:13:08;;;;;;;4.00;3.42;;;;;;;10.16;67.47;101098.38;5117559;28;20122;-61
2023/04/02 01:15:43;;;;;;;8.60;3.60;;;;;;;10.15;67.50;101086.00;5121062;28;20058;-62
2023/04/02 01:18:25;;;;;;;3.72;3.00;;;;;;;10.11;67.84;101099.84;5119287;28;20063;-61
2023/04/02 01:21:24;;;;;;;4.82;3.13;;;;;;;10.07;67.46;101104.00;5117542;28;20051;-62
2023/04/02 01:24:00;;;;;;;5.03;3.72;;;;;;;10.03;68.13;101097.41;5073332;28;20059;-61
2023/04/02 01:26:45;;;;;;;4.13;3.40;;;;;;;10.00;67.68;101105.88;5114667;28;20075;-61
2023/04/02 01:29:16;;;;;;;4.53;3.53;;;;;;;10.00;67.53;101105.88;5119401;28;20050;-61
2023/04/02 01:31:46;;;;;;;5.38;3.28;;;;;;;10.04;67.48;101111.66;5120422;28;20067;-61
2023/04/02 01:34:17;;;;;;;4.80;3.47;;;;;;;10.05;67.62;101111.44;5116329;28;20048;-61
2023/04/02 01:36:58;;;;;;;5.53;4.10;;;;;;;10.06;67.25;101113.09;5117181;28;20079;-61
2023/04/02 01:39:44;;;;;;;4.10;3.30;;;;;;;10.05;67.61;101116.81;5120298;28;20043;-61
2023/04/02 01:42:19;;;;;;;4.80;3.35;;;;;;;10.05;67.19;101129.41;5120929;28;20062;-61
2023/04/02 01:44:51;;;;;;;4.18;3.15;;;;;;;10.03;67.08;101128.81;5114737;28;20055;-61
2023/04/02 01:47:23;;;;;;;6.60;3.40;;;;;;;10.07;66.96;101135.41;5113813;28;20040;-61
2023/04/02 01:49:56;;;;;;;3.97;3.28;;;;;;;10.08;67.26;101137.88;5117019;28;20043;-61
2023/04/02 01:52:34;;;;;;;5.18;3.60;;;;;;;10.06;67.24;101150.69;5119559;28;20293;-61
2023/04/02 01:55:03;;;;;;;6.43;3.58;;;;;;;10.02;67.23;101151.31;5114528;28;20040;-61
2023/04/02 01:57:31;;;;;;;4.65;3.20;;;;;;;10.00;66.97;101156.06;5118311;28;20047;-61
2023/04/02 02:00:06;;;;;;;5.13;3.92;;;;;;;9.95;67.29;101150.50;5118712;28;20134;-61
2023/04/02 02:02:34;;;;;;;5.03;3.72;;;;;;;9.95;67.15;101159.38;5118147;28;20058;-61
2023/04/02 02:05:03;;;;;;;5.22;3.80;;;;;;;9.96;67.01;101166.41;5120928;28;20040;-61
2023/04/02 02:07:31;;;;;;;4.95;3.28;;;;;;;9.97;66.72;101178.78;5120592;28;20052;-61
2023/04/02 02:09:59;;;;;;;6.15;3.72;;;;;;;9.95;66.89;101180.03;5120435;28;20127;-61
2023/04/02 02:12:26;;;;;;;6.13;3.67;;;;;;;9.92;67.20;101177.78;5113542;28;20060;-62
2023/04/02 02:14:54;;;;;;;7.38;3.70;;;;;;;9.92;66.64;101183.97;5119945;28;20047;-61
2023/04/02 02:17:28;;;;;;;4.43;3.72;;;;;;;9.94;66.52;101192.63;5119820;28;20050;-61
2023/04/02 02:19:59;;;;;;;6.43;3.88;;;;;;;9.95;66.52;101198.84;5115068;28;20180;-61
2023/04/02 02:22:30;;;;;;;5.10;3.95;;;;;;;9.93;67.00;101195.53;5114174;28;20593;-62
2023/04/02 02:25:00;;;;;;;5.70;3.42;;;;;;;9.91;66.71;101208.34;5118686;28;20048;-61
2023/04/02 02:28:02;;;;;;;8.15;3.70;;;;;;;9.86;66.81;101203.59;5118499;28;20043;-61
2023/04/02 02:30:35;;;;;;;4.68;3.38;;;;;;;9.88;66.61;101219.50;5102341;28;20043;-61
2023/04/02 02:33:08;;;;;;;6.10;3.42;;;;;;;9.86;66.79;101221.56;5120745;28;20102;-61
2023/04/02 02:35:43;;;;;;;5.95;4.53;;;;;;;9.83;66.83;101222.81;5121447;28;20130;-60
2023/04/02 02:38:29;;;;;;;6.25;3.72;;;;;;;9.83;66.61;101228.16;5114190;28;20048;-60
2023/04/02 02:41:01;;;;;;;5.00;3.53;;;;;;;9.84;66.76;101237.88;5116090;28;20043;-61
2023/04/02 02:43:30;;;;;;;4.13;3.30;;;;;;;9.84;66.56;101242.41;5120725;28;20047;-61
2023/04/02 02:45:58;;;;;;;4.50;3.45;;;;;;;9.81;66.74;101240.97;5121788;28;20060;-62
2023/04/02 02:48:36;;;;;;;7.20;3.42;;;;;;;9.78;66.81;101247.59;5110111;28;20059;-60
2023/04/02 02:51:09;;;;;;;5.05;3.58;;;;;;;9.79;66.18;101254.59;5116455;28;20351;-61
2023/04/02 02:53:46;;;;;;;5.97;3.60;;;;;;;9.78;66.33;101260.19;5119493;28;20058;-61
2023/04/02 02:56:14;;;;;;;4.60;3.53;;;;;;;9.75;66.03;101266.78;5115160;28;20151;-60
2023/04/02 02:58:43;;;;;;;8.65;3.58;;;;;;;9.76;65.93;101265.75;5119124;28;20052;-61
2023/04/02 03:01:11;;;;;;;4.72;3.75;;;;;;;9.72;66.75;101271.75;5119445;28;20071;-61
2023/04/02 03:03:41;;;;;;;5.60;3.63;;;;;;;9.71;66.10;101278.97;5117138;28;20043;-61
2023/04/02 03:06:10;;;;;;;5.15;3.15;;;;;;;9.71;66.42;101275.44;5116653;28;20051;-60
2023/04/02 03:08:42;;;;;;;6.47;3.22;;;;;;;9.72;66.02;101285.97;5098505;28;20131;-60
2023/04/02 03:11:15;;;;;;;5.00;3.08;;;;;;;9.71;66.59;101294.25;5092370;28;20048;-60
2023/04/02 03:13:48;;;;;;;6.30;2.85;;;;;;;9.65;65.92;101293.19;5099286;28;20111;-61
2023/04/02 03:16:21;;;;;;;6.00;3.33;;;;;;;9.62;66.34;101311.56;5097138;28;20067;-60
2023/04/02 03:18:56;;;;;;;5.47;4.05;;;;;;;9.57;65.98;101309.50;5083276;28;20039;-61
2023/04/02 03:21:31;;;;;;;4.88;2.80;;;;;;;9.55;65.89;101306.19;5099617;28;20082;-61
2023/04/02 03:24:03;;;;;;;5.05;3.03;;;;;;;9.55;66.19;101311.56;5092714;28;20405;-61
2023/04/02 03:26:35;;;;;;;4.75;3.08;;;;;;;9.51;66.35;101322.91;5094892;28;20131;-61
2023/04/02 03:29:11;;;;;;;5.03;3.20;;;;;;;9.51;65.94;101331.78;5092885;28;20134;-61
2023/04/02 03:31:44;;;;;;;3.90;3.17;;;;;;;9.51;65.89;101333.63;5092953;28;20082;-61
2023/04/02 03:34:20;;;;;;;4.30;2.72;;;;;;;9.51;65.55;101342.50;5086115;28;20436;-61
2023/04/02 03:36:56;;;;;;;4.80;2.80;;;;;;;9.49;65.23;101355.31;5092640;28;20063;-61
2023/04/02 03:39:31;;;;;;;3.70;2.90;;;;;;;9.47;65.10;101360.03;5082522;28;20269;-61
2023/04/02 03:42:04;;;;;;;4.97;2.67;;;;;;;9.47;65.24;101365.41;5092069;28;20059;-61
2023/04/02 03:44:38;;;;;;;4.38;2.50;;;;;;;9.46;65.72;101363.75;5099085;28;20146;-61
2023/04/02 03:47:15;;;;;;;4.60;2.92;;;;;;;9.48;65.37;101363.53;5099723;28;20103;-61
2023/04/02 03:49:49;;;;;;;5.00;2.78;;;;;;;9.50;65.12;101381.09;5097710;28;20079;-62
2023/04/02 03:52:23;;;;;;;6.20;3.22;;;;;;;9.52;65.09;101379.03;5097321;28;20055;-62
2023/04/02 03:54:51;;;;;;;4.72;2.90;;;;;;;9.54;65.50;101378.84;5094555;28;20079;-61
2023/04/02 03:57:28;;;;;;;4.80;2.95;;;;;;;9.54;64.99;101382.34;5095661;28;20075;-61
2023/04/02 04:00:01;;;;;;;4.32;3.10;;;;;;;9.55;65.31;101392.06;5086942;28;20110;-63
2023/04/02 04:02:39;;;;;;;5.10;3.00;;;;;;;9.55;65.04;101394.75;5097114;28;20147;-61
2023/04/02 04:05:22;;;;;;;6.05;3.17;;;;;;;9.54;65.44;101398.44;5093960;28;20310;-61
2023/04/02 04:07:53;;;;;;;5.18;2.75;;;;;;;9.55;65.14;101393.91;5085141;28;20493;-61
2023/04/02 04:10:24;;;;;;;5.35;3.40;;;;;;;9.54;65.32;101403.00;5093688;28;20053;-63
2023/04/02 04:12:55;;;;;;;6.05;3.75;;;;;;;9.54;65.46;101419.09;5102734;28;20328;-61
2023/04/02 04:15:30;;;;;;;5.68;3.33;;;;;;;9.54;65.88;101427.13;5102401;28;20058;-61
2023/04/02 04:18:03;;;;;;;5.70;3.35;;;;;;;9.53;65.29;101425.47;5096203;28;20109;-61
2023/04/02 04:20:40;;;;;;;5.75;3.70;;;;;;;9.52;65.17;101431.88;5102015;28;20059;-62
2023/04/02 04:23:10;;;;;;;4.35;3.28;;;;;;;9.53;65.11;101442.41;5097748;28;20127;-61
2023/04/02 04:25:38;;;;;;;6.72;3.50;;;;;;;9.53;64.83;101452.31;5102780;28;20040;-61
2023/04/02 04:28:17;;;;;;;6.70;4.07;;;;;;;9.45;65.44;101446.09;5097458;28;20575;-61
2023/04/02 04:30:50;;;;;;;7.47;4.13;;;;;;;9.43;64.99;101461.56;5099139;28;20052;-61
2023/04/02 04:33:22;;;;;;;6.00;3.83;;;;;;;9.37;65.60;101462.34;5099500;28;20054;-61
2023/04/02 04:35:55;;;;;;;6.00;3.92;;;;;;;9.34;65.28;101468.13;5102642;28;20112;-61
2023/04/02 04:38:31;;;;;;;6.40;4.00;;;;;;;9.31;65.30;101478.41;5098874;28;20036;-61
2023/04/02 04:41:03;;;;;;;6.35;3.90;;;;;;;9.27;64.74;101477.97;5096692;28;20101;-61
2023/04/02 04:43:42;;;;;;;6.65;3.83;;;;;;;9.28;64.83;101490.38;5100160;28;20063;-61
2023/04/02 04:46:13;;;;;;;8.23;4.10;;;;;;;9.24;65.48;101494.47;5096857;28;20060;-61
2023/04/02 04:48:50;;;;;;;5.82;4.15;;;;;;;9.20;65.09;101495.88;5098967;28;20052;-62
2023/04/02 04:51:24;;;;;;;6.63;4.20;;;;;;;9.21;64.89;101500.22;5095489;28;20071;-62
2023/04/02 04:53:54;;;;;;;6.97;4.00;;;;;;;9.24;64.57;101507.06;4740913;28;10000401;-61
2023/04/02 04:56:26;;;;;;;6.75;4.18;;;;;;;9.24;64.33;101507.88;5091262;28;20042;-62
2023/04/02 04:59:00;;;;;;;8.02;3.65;;;;;;;9.23;64.93;101508.91;5095950;28;20047;-62
2023/04/02 05:01:35;;;;;;;6.20;4.03;;;;;;;9.20;64.75;101511.16;5097812;28;20063;-62
2023/04/02 05:04:11;;;;;;;5.50;3.95;;;;;;;9.18;65.29;101514.03;5095053;28;20062;-62
2023/04/02 05:06:44;;;;;;;6.63;3.67;;;;;;;9.17;64.96;101527.63;5098335;28;20055;-62
2023/04/02 05:09:20;;;;;;;5.10;3.47;;;;;;;9.16;64.75;101542.06;5117289;28;20048;-62
2023/04/02 05:11:55;;;;;;;7.70;4.25;;;;;;;9.11;64.91;101548.84;5112881;28;20130;-62
2023/04/02 05:14:29;;;;;;;6.03;3.60;;;;;;;9.10;64.37;101560.59;5115026;28;20043;-62
2023/04/02 05:17:04;;;;;;;7.25;4.18;;;;;;;9.06;64.93;101564.69;5110581;28;20044;-61
2023/04/02 05:19:38;;;;;;;6.15;3.75;;;;;;;9.06;64.21;101559.31;5111230;28;20133;-62
2023/04/02 05:22:20;;;;;;;5.63;3.88;;;;;;;9.02;64.23;101568.78;5113229;28;20055;-62
2023/04/02 05:24:56;;;;;;;6.15;3.65;;;;;;;8.99;64.62;101577.22;5113569;28;20047;-61
2023/04/02 05:27:28;;;;;;;;;;;;;;;8.98;64.40;101572.88;5117353;28;20082;-63
2023/04/02 05:30:02;;;;;;;4.40;3.60;;;;;;;9.00;64.05;101576.19;5116475;28;19975;-63
2023/04/02 05:32:33;;;;;;;5.70;3.67;;;;;;;9.00;64.52;101586.09;5116545;28;20542;-63
2023/04/02 05:35:04;;;;;;;5.68;3.70;;;;;;;9.01;64.17;101587.75;5114529;28;20100;-63
2023/04/02 05:37:34;;;;;;;6.32;3.67;;;;;;;8.98;64.16;101594.31;5110705;28;20048;-61
2023/04/02 05:40:10;;;;;;;7.15;3.80;;;;;;;8.96;64.23;101596.38;5106757;28;20494;-62
2023/04/02 05:42:40;;;;;;;6.93;4.18;;;;;;;8.97;64.22;101598.03;5118222;28;20051;-61
2023/04/02 05:45:19;;;;;;;5.75;3.65;;;;;;;9.00;63.62;101607.53;5106288;28;20165;-60
2023/04/02 05:47:51;;;;;;;5.45;3.70;;;;;;;8.99;64.14;101609.38;5109721;28;20071;-65
2023/04/02 05:50:25;;;;;;;5.15;3.33;;;;;;;8.97;64.40;101618.63;5112472;28;20065;-62
2023/04/02 05:52:58;;;;;;;7.78;3.85;;;;;;;8.90;63.61;101615.91;5116104;28;20071;-60
2023/04/02 05:55:36;;;;;;;5.47;3.33;;;;;;;8.92;63.40;101632.63;5119467;28;20047;-61
2023/04/02 05:58:07;;;;;;;6.60;3.45;;;;;;;8.94;63.06;101635.09;5096199;28;20139;-61
2023/04/02 06:01:06;;;;;;;7.47;4.18;;;;;;;8.94;63.54;101638.63;5086823;28;20048;-61
2023/04/02 06:03:44;;;;;;;5.68;3.47;;;;;;;8.97;63.40;101653.50;5097469;28;20125;-62
2023/04/02 06:06:19;;;;;;;6.18;3.70;;;;;;;8.99;62.93;101657.63;5098208;28;20144;-60
2023/04/02 06:08:58;;;;;;;8.00;3.83;;;;;;;9.01;63.17;101657.44;5113483;27;20580;-63
2023/04/02 06:11:31;;;;;;;7.25;4.10;;;;;;;8.94;63.44;101669.97;5119438;28;20048;-61
2023/04/02 06:13:59;;;;;;;9.13;3.95;;;;;;;8.91;62.99;101668.50;5112487;28;20050;-61
2023/04/02 06:16:30;;;;;;;8.55;3.63;;;;;;;8.93;62.22;101671.81;5113127;28;20109;-61
2023/04/02 06:18:58;;;;;;;6.25;3.72;;;;;;;8.81;63.08;101676.84;5110894;28;20051;-62
2023/04/02 06:21:27;;;;;;;5.68;3.35;;;;;;;8.77;63.29;101675.56;5102958;28;20063;-62
2023/04/02 06:24:00;;;;;;;5.47;3.60;;;;;;;8.78;63.12;101684.44;5092658;28;20497;-62
2023/04/02 06:26:33;;;;;;;6.10;3.67;;;;;;;8.79;63.33;101686.91;5108947;28;20040;-62
2023/04/02 06:29:07;;;;;;;6.50;4.03;;;;;;;8.82;62.77;101689.22;5109782;28;20146;-62
2023/04/02 06:31:40;;;;;;;5.78;3.45;;;;;;;8.86;62.87;101699.56;5112749;28;20094;-62
2023/04/02 06:34:15;;;;;;;6.97;3.45;;;;;;;8.87;62.49;101715.47;5110639;28;20064;-62
2023/04/02 06:36:44;;;;;;;4.78;3.20;;;;;;;8.88;62.71;101717.13;5115568;28;20055;-62
2023/04/02 06:39:18;;;;;;;6.07;3.30;;;;;;;8.88;62.60;101717.13;5112925;28;20089;-62
2023/04/02 06:41:46;;;;;;;6.82;3.63;;;;;;;8.87;62.18;101718.13;5107233;28;20051;-62
2023/04/02 06:44:18;;;;;;;6.72;3.05;;;;;;;8.87;62.69;101731.53;5104436;28;20265;-62
2023/04/02 06:46:49;;;;;;;8.55;3.40;;;;;;;8.88;62.89;101733.19;5108239;28;20364;-62
2023/04/02 06:49:23;;;;;;;8.05;3.40;;;;;;;8.85;62.76;101743.47;5112708;28;20070;-62
2023/04/02 06:51:55;;;;;;;7.55;3.40;;;;;;;8.80;62.43;101747.53;5117528;28;20166;-62
2023/04/02 06:54:24;;;;;;;8.35;4.55;;;;;;;8.79;62.21;101748.56;5116645;28;20082;-62
2023/04/02 06:56:55;;;;;;;7.80;3.78;;;;;;;8.78;63.00;101759.47;5116714;28;20058;-62
2023/04/02 06:59:23;;;;;;;7.63;3.70;;;;;;;8.85;62.00;101760.38;5111260;28;20058;-62
2023/04/02 07:01:53;;;;;;;8.52;3.80;;;;;;;9.04;60.88;101764.31;5117084;28;20047;-62
2023/04/02 07:04:21;;;;;;;8.40;3.92;;;;;;;9.24;60.33;101780.63;5113728;28;20058;-62
2023/04/02 07:06:50;;;;;;;6.43;3.53;;;;;;;9.38;60.51;101780.56;5116532;28;20039;-63
2023/04/02 07:09:17;;;;;;;8.45;3.65;;;;;;;9.64;58.92;101789.91;5113780;28;20269;-62
2023/04/02 07:11:46;;;;;;;6.20;3.22;;;;;;;9.60;58.63;101794.81;5105741;28;20345;-63
2023/04/02 07:14:14;;;;;;;6.93;3.38;;;;;;;9.36;59.95;101797.88;5113144;28;20047;-62
2023/04/02 07:16:43;;;;;;;7.18;4.13;;;;;;;9.23;59.39;101801.25;5113807;28;20036;-63
2023/04/02 07:19:17;;;;;;;6.70;3.20;;;;;;;9.21;59.68;101814.03;5106397;28;20258;-62
2023/04/02 07:21:45;;;;;;;8.48;3.30;;;;;;;9.20;59.68;101815.03;5113460;28;20051;-63
2023/04/02 07:24:13;;;;;;;6.93;3.08;;;;;;;9.13;59.80;101824.84;5111450;28;20068;-62
2023/04/02 07:26:41;;;;;;;8.98;3.13;;;;;;;9.06;60.23;101826.63;5114143;28;20040;-62
2023/04/02 07:29:15;;;;;;;10.38;3.83;;;;;;;8.94;60.37;101831.63;5115140;28;20118;-62
2023/04/02 07:31:43;;;;;;;5.95;3.35;;;;;;;8.93;59.92;101839.88;5115702;28;20408;-63
2023/04/02 07:34:11;;;;;;;6.53;3.45;;;;;;;8.90;60.55;101849.13;5101986;28;20114;-62
2023/04/02 07:36:39;;;;;;;6.78;3.13;;;;;;;8.89;59.63;101849.31;5109328;28;20101;-62
2023/04/02 07:39:07;;;;;;;8.48;3.17;;;;;;;8.90;59.13;101849.13;5110001;28;20062;-62
2023/04/02 07:41:51;;;;;;;4.82;3.03;;;;;;;8.69;61.13;101857.91;5116094;28;20043;-65
2023/04/02 07:44:20;;;;;;;5.13;2.55;;;;;;;8.63;61.05;101858.66;5106532;28;20275;-61
2023/04/02 07:46:48;;;;;;;6.30;3.00;;;;;;;8.64;61.25;101851.47;5121024;28;20311;-61
2023/04/02 07:49:15;;;;;;;5.38;2.90;;;;;;;8.69;60.51;101867.78;5111441;28;20043;-59
2023/04/02 07:51:43;;;;;;;7.35;3.95;;;;;;;8.68;60.61;101858.91;5114016;28;20083;-62
2023/04/02 07:54:11;;;;;;;8.40;2.80;;;;;;;8.68;60.61;101869.63;5117172;28;20067;-64
2023/04/02 07:56:40;;;;;;;6.07;2.58;;;;;;;8.69;60.10;101867.78;5112675;28;20052;-62
2023/04/02 07:59:08;;;;;;;6.97;2.50;;;;;;;8.69;60.27;101876.66;5121388;28;20085;-61
2023/04/02 08:01:37;;;;;;;5.10;2.45;;;;;;;8.68;60.38;101888.41;5119628;28;20043;-61
2023/04/02 08:04:06;;;;;;;6.43;2.78;;;;;;;8.65;60.22;101886.13;5123550;28;20044;-61
2023/04/02 08:06:34;;;;;;;5.80;2.67;;;;;;;8.66;60.06;101898.50;5113876;28;20063;-61
2023/04/02 08:09:02;;;;;;;4.88;2.20;;;;;;;8.70;60.44;101901.63;5118511;28;20511;-61
2023/04/02 08:11:30;;;;;;;5.30;2.45;;;;;;;8.71;60.39;101900.59;5122030;28;20058;-61
2023/04/02 08:13:58;;;;;;;7.85;2.65;;;;;;;8.71;60.79;101909.47;5115061;28;20048;-61
2023/04/02 08:16:26;;;;;;;7.72;2.35;;;;;;;8.70;60.27;101909.66;5122475;28;20052;-61
2023/04/02 08:18:56;;;;;;;7.28;2.75;;;;;;;8.68;59.82;101906.31;5123843;28;20040;-64
2023/04/02 08:21:24;;;;;;;7.75;2.55;;;;;;;8.61;60.60;101913.47;5118824;28;20067;-63
2023/04/02 08:23:51;;;;;;;6.82;2.42;;;;;;;8.56;60.19;101927.41;5117104;28;20071;-65
2023/04/02 08:26:19;;;;;;;7.13;2.47;;;;;;;8.52;60.47;101926.09;5122594;28;20058;-64
2023/04/02 08:28:47;;;;;;;5.93;2.60;;;;;;;8.51;60.62;101934.31;5117414;28;20174;-63
2023/04/02 08:31:15;;;;;;;7.30;3.15;;;;;;;8.47;60.42;101940.03;5119321;28;20119;-63
2023/04/02 08:33:43;;;;;;;7.05;2.40;;;;;;;8.48;59.82;101947.06;5120517;28;20540;-63
2023/04/02 08:36:16;;;;;;;3.90;2.13;;;;;;;8.49;59.95;101950.59;5122901;28;20130;-64
2023/04/02 08:38:45;;;;;;;5.32;2.17;;;;;;;8.49;59.60;101955.94;5118288;28;20123;-63
2023/04/02 08:41:22;;;;;;;5.72;1.90;;;;;;;8.53;60.32;101972.47;5112758;28;20047;-64
2023/04/02 08:43:54;;;;;;;;;;;;;;;8.52;60.30;101968.16;5115843;28;20048;-64
2023/04/02 08:46:30;;;;;;;5.43;1.85;;;;;;;8.54;60.02;101972.31;5113912;28;20022;-64
2023/04/02 08:49:02;;;;;;;7.80;2.17;;;;;;;8.50;60.13;101983.56;5119160;28;20070;-64
2023/04/02 08:51:34;;;;;;;5.15;2.08;;;;;;;8.45;59.98;101976.06;5121504;28;20127;-64
2023/04/02 08:54:08;;;;;;;4.70;1.63;;;;;;;8.46;59.95;101986.59;5122920;28;20048;-64
2023/04/02 08:56:40;;;;;;;5.72;1.85;;;;;;;8.48;59.40;101992.63;5114018;28;20048;-63
2023/04/02 08:59:19;;;;;;;5.25;2.20;;;;;;;8.50;60.08;102000.47;5121392;28;20044;-63
2023/04/02 09:01:55;;;;;;;6.47;2.25;;;;;;;8.48;60.13;102011.38;5114514;28;20047;-63
2023/04/02 09:04:25;;;;;;;7.25;2.00;;;;;;;8.46;60.46;102012.56;5109252;28;20435;-63
2023/04/02 09:06:56;;;;;;;4.75;2.13;;;;;;;8.32;59.65;102000.75;5113934;28;20060;-63
2023/04/02 09:09:25;;;;;;;3.83;1.77;;;;;;;8.41;59.43;102014.94;5118382;28;20079;-63
2023/04/02 09:11:57;;;;;;;3.15;1.70;;;;;;;8.42;59.69;102021.97;5111612;28;20071;-63
2023/04/02 09:14:31;;;;;;;9.52;2.15;;;;;;;8.43;60.18;102026.31;5118537;28;20042;-63
2023/04/02 09:17:02;;;;;;;4.13;1.73;;;;;;;8.36;60.44;102034.22;5108350;28;20059;-62
2023/04/02 09:19:35;;;;;;;4.90;2.08;;;;;;;8.37;59.68;102046.59;5120045;28;20048;-63
2023/04/02 09:22:09;;;;;;;6.80;2.00;;;;;;;8.34;59.68;102041.59;5108593;28;20135;-63
2023/04/02 09:24:37;;;;;;;7.35;1.52;;;;;;;8.29;60.53;102043.94;5101651;28;20072;-63
2023/04/02 09:27:18;;;;;;;6.63;1.85;;;;;;;8.26;59.79;102047.00;5102787;28;20074;-62
2023/04/02 09:29:48;;;;;;;9.25;2.03;;;;;;;8.27;59.92;102054.00;5106493;28;20053;-62
2023/04/02 09:32:42;;;;;;;7.18;2.22;;;;;;;8.34;59.43;102068.41;5115579;28;20211;-63
2023/04/02 09:35:14;;;;;;;8.15;2.08;;;;;;;8.52;58.54;102070.78;5113933;28;20043;-64
2023/04/02 09:38:30;;;;;;;5.18;1.92;;;;;;;8.74;57.93;102072.59;5119744;28;20047;-63
2023/04/02 09:41:01;;;;;;;6.97;1.90;;;;;;;8.81;57.83;102076.22;5077404;28;20056;-63
2023/04/02 09:43:31;;;;;;;2.25;1.38;;;;;;;8.81;57.88;102081.59;5068129;28;20049;-63
2023/04/02 09:46:01;;;;;;;5.15;2.20;;;;;;;8.82;57.83;102082.41;5066068;28;20124;-63
2023/04/02 09:48:32;;;;;;;2.17;1.33;;;;;;;8.80;57.86;102084.44;5056274;28;20102;-63
2023/04/02 09:51:20;;;;;;;3.03;1.40;;;;;;;8.77;57.86;102087.50;5069108;28;20073;-63
2023/04/02 09:53:51;;;;;;;3.58;1.58;;;;;;;8.73;58.59;102095.06;5078712;28;20123;-63
2023/04/02 09:56:21;;;;;;;4.43;1.65;;;;;;;8.70;58.03;102105.28;5079183;28;20045;-63
2023/04/02 09:59:04;;;;;;;4.25;1.58;;;;;;;8.64;58.77;102114.06;5071175;28;20040;-64
2023/04/02 10:01:34;;;;;;;4.47;2.30;;;;;;;8.55;59.41;102107.09;5075810;28;20075;-63
2023/04/02 10:04:05;;;;;;;4.10;1.63;;;;;;;8.53;58.18;102111.81;5061282;28;20044;-63
2023/04/02 10:06:34;;;;;;;4.43;1.83;;;;;;;8.51;58.43;102114.66;5046203;28;20049;-62
2023/04/02 10:09:27;;;;;;;2.95;1.52;;;;;;;8.52;58.16;102118.19;5038122;28;20378;-61
2023/04/02 10:11:56;;;;;;;4.40;1.75;;;;;;;8.45;59.76;102118.88;5088167;28;20080;-62
2023/04/02 10:14:28;;;;;;;2.88;1.30;;;;;;;8.44;58.68;102119.91;5094881;28;20098;-63
2023/04/02 10:16:59;;;;;;;4.43;2.08;;;;;;;8.43;58.23;102123.59;5100847;28;20556;-63
2023/04/02 10:19:32;;;;;;;6.38;1.85;;;;;;;8.42;58.95;102129.97;5093897;28;20068;-63
2023/04/02 10:22:04;;;;;;;3.08;1.50;;;;;;;8.46;58.86;102125.06;5096412;28;20077;-65
2023/04/02 10:24:33;;;;;;;6.65;1.88;;;;;;;8.47;58.73;102138.28;5100399;28;20048;-64
2023/04/02 10:27:16;;;;;;;4.18;1.42;;;;;;;8.44;59.43;102152.03;5097675;28;20143;-63
2023/04/02 10:30:09;;;;;;;4.07;2.00;;;;;;;8.43;58.77;102155.72;5094303;28;20465;-63
2023/04/02 10:32:42;;;;;;;4.50;1.70;;;;;;;8.39;58.41;102161.63;4732388;28;9999700;-64
2023/04/02 10:35:22;;;;;;;3.70;1.20;;;;;;;8.35;59.13;102168.34;5099531;28;20047;-63
2023/04/02 10:38:20;;;;;;;4.10;1.58;;;;;;;8.36;58.90;102176.19;5094444;28;20260;-63
2023/04/02 10:40:54;;;;;;;;;;;;;;;8.61;58.00;102184.09;5098664;28;20050;-63
2023/04/02 10:43:47;;;;;;;4.07;1.55;;;;;;;8.67;58.32;102178.00;5097514;28;19920;-62
2023/04/02 10:46:22;;;;;;;3.20;1.77;;;;;;;8.89;56.73;102179.88;5105541;28;20051;-61
2023/04/02 10:48:55;;;;;;;;;;;;;;;9.10;56.00;102182.75;5099150;28;20059;-62
2023/04/02 10:51:33;;;;;;;3.00;1.48;;;;;;;9.26;55.53;102189.00;5100439;28;20443;-62
2023/04/02 10:54:11;;;;;;;4.85;2.05;;;;;;;9.31;55.41;102187.44;5097152;28;20139;-61
2023/04/02 10:56:43;;;;;;;3.97;1.63;;;;;;;9.29;55.60;102186.78;5096396;28;20075;-61
2023/04/02 10:59:22;;;;;;;4.40;1.70;;;;;;;9.07;56.42;102193.00;5091447;28;20121;-61
2023/04/02 11:01:53;;;;;;;2.95;1.42;;;;;;;9.03;56.74;102191.69;5097843;28;20067;-61
2023/04/02 11:04:26;;;;;;;3.28;1.35;;;;;;;8.94;56.79;102195.44;5096251;28;20048;-62
2023/04/02 11:06:58;;;;;;;2.22;1.30;;;;;;;8.87;57.42;102208.72;5094457;28;20048;-62
2023/04/02 11:09:43;;;;;;;2.95;1.35;;;;;;;8.75;56.93;102210.97;5089566;28;20047;-60
2023/04/02 11:12:23;;;;;;;5.00;1.85;;;;;;;8.69;57.40;102211.66;5096989;28;20071;-63
2023/04/02 11:14:54;;;;;;;4.65;1.30;;;;;;;8.71;57.58;102216.84;5088869;28;20048;-62
2023/04/02 11:17:24;;;;;;;4.18;1.60;;;;;;;8.66;57.51;102225.44;5097224;28;20086;-63
2023/04/02 11:19:52;;;;;;;4.65;2.42;;;;;;;8.66;57.81;102225.44;5099749;28;20117;-63
2023/04/02 11:22:21;;;;;;;3.33;1.42;;;;;;;8.63;58.00;102238.38;5093852;28;20044;-63
2023/04/02 11:24:51;;;;;;;2.88;1.30;;;;;;;8.57;57.65;102241.75;5093132;28;20046;-63
2023/04/02 11:27:26;;;;;;;1.77;1.15;;;;;;;8.55;58.27;102241.91;5093508;28;20066;-62
2023/04/02 11:30:02;;;;;;;5.47;1.80;;;;;;;8.52;57.48;102250.31;5098485;28;20040;-62
2023/04/02 11:32:41;;;;;;;5.85;1.67;;;;;;;8.35;57.25;102251.38;5098103;28;20050;-62
2023/04/02 11:35:35;;;;;;;5.43;1.75;;;;;;;8.27;56.69;102254.88;5086783;28;20111;-62
2023/04/02 11:38:42;;;;;;;4.95;1.50;;;;;;;8.24;57.28;102255.22;5103480;28;20048;-62
2023/04/02 11:41:11;;;;;;;5.90;1.73;;;;;;;8.25;56.19;102248.03;5080409;28;20131;-62
2023/04/02 11:43:59;;;;;;;7.47;1.75;;;;;;;8.24;57.18;102260.56;5090507;28;20055;-61
2023/04/02 11:46:45;;;;;;;6.50;1.73;;;;;;;8.24;56.92;102254.38;5083951;28;20055;-62
2023/04/02 11:49:36;;;;;;;4.93;1.65;;;;;;;8.22;56.51;102262.59;5096463;28;20048;-61
2023/04/02 11:52:19;;;;;;;4.80;1.88;;;;;;;8.22;55.90;102262.59;5088024;28;20136;-61
2023/04/02 11:54:56;;;;;;;8.75;1.80;;;;;;;8.20;57.11;102263.78;5099656;28;20143;-63
2023/04/02 11:57:32;;;;;;;;;;;;;;;8.19;56.97;102272.81;5087352;28;20047;-62
2023/04/02 12:00:19;;;;;;;5.70;2.47;;;;;;;8.13;56.69;102266.31;5098453;28;19924;-62
2023/04/02 12:03:03;;;;;;;3.65;1.67;;;;;;;8.15;57.31;102269.66;5096223;28;20074;-62
2023/04/02 12:05:38;;;;;;;2.95;1.27;;;;;;;8.14;57.57;102289.41;5088475;28;20040;-62